createdAt,value
2022-09-02T00:01:37.676Z,1.70
2022-09-02T00:04:11.672Z,1.70
2022-09-02T00:06:38.408Z,1.60
2022-09-02T00:09:08.285Z,1.63
2022-09-02T00:11:36.974Z,1.70
2022-09-02T00:14:06.715Z,1.50
2022-09-02T00:16:34.287Z,1.60
2022-09-02T00:19:02.830Z,1.43
2022-09-02T00:21:30.819Z,1.67
2022-09-02T00:23:57.443Z,1.60
2022-09-02T00:26:24.739Z,1.90
2022-09-02T00:28:55.888Z,1.60
2022-09-02T00:31:24.913Z,1.70
2022-09-02T00:33:51.828Z,1.53
2022-09-02T00:36:18.404Z,1.40
2022-09-02T00:38:45.129Z,1.90
2022-09-02T00:41:12.888Z,1.47
2022-09-02T00:43:50.894Z,1.60
2022-09-02T00:46:19.981Z,1.70
2022-09-02T00:48:53.836Z,1.53
2022-09-02T00:51:20.789Z,1.50
2022-09-02T00:53:49.743Z,1.67
2022-09-02T00:56:23.431Z,1.50
2022-09-02T00:58:52.143Z,1.37
2022-09-02T01:01:18.974Z,2.00
2022-09-02T01:03:45.737Z,1.40
2022-09-02T01:06:15.502Z,1.77
2022-09-02T01:08:47.392Z,1.80
2022-09-02T01:11:13.990Z,1.63
2022-09-02T01:13:43.310Z,1.70
2022-09-02T01:16:33.635Z,1.50
2022-09-02T01:19:03.616Z,1.60
2022-09-02T01:21:30.191Z,1.73
2022-09-02T01:23:57.200Z,1.60
2022-09-02T01:26:23.886Z,1.50
2022-09-02T01:28:50.433Z,1.70
2022-09-02T01:31:17.543Z,1.50
2022-09-02T01:33:44.249Z,1.87
2022-09-02T01:36:12.435Z,1.50
2022-09-02T01:38:39.199Z,1.53
2022-09-02T01:41:06.147Z,1.47
2022-09-02T01:43:32.869Z,1.40
2022-09-02T01:46:00.204Z,1.50
2022-09-02T01:48:27.408Z,1.40
2022-09-02T01:50:57.970Z,1.50
2022-09-02T01:53:25.078Z,1.40
2022-09-02T01:55:52.058Z,1.67
2022-09-02T01:58:19.529Z,1.60
2022-09-02T02:00:46.883Z,1.77
2022-09-02T02:03:14.191Z,1.53
2022-09-02T02:05:41.244Z,1.60
2022-09-02T02:08:07.995Z,1.50
2022-09-02T02:10:34.782Z,1.50
2022-09-02T02:13:02.358Z,1.63
2022-09-02T02:17:54.793Z,1.70
2022-09-02T02:20:22.108Z,1.60
2022-09-02T02:22:49.462Z,1.60
2022-09-02T02:25:18.089Z,1.97
2022-09-02T02:27:45.891Z,1.53
2022-09-02T02:30:16.505Z,1.40
2022-09-02T02:32:44.529Z,1.63
2022-09-02T02:35:11.720Z,1.50
2022-09-02T02:37:38.384Z,1.50
2022-09-02T02:40:07.005Z,1.57
2022-09-02T02:42:34.290Z,1.57
2022-09-02T02:45:01.251Z,1.60
2022-09-02T02:47:27.950Z,1.40
2022-09-02T02:49:54.603Z,1.30
2022-09-02T02:52:21.327Z,1.43
2022-09-02T02:54:47.935Z,1.40
2022-09-02T02:57:15.239Z,1.50
2022-09-02T02:59:41.898Z,1.67
2022-09-02T03:02:09.388Z,1.50
2022-09-02T03:04:36.361Z,1.30
2022-09-02T03:07:03.680Z,1.30
2022-09-02T03:09:31.869Z,1.47
2022-09-02T03:11:58.571Z,1.07
2022-09-02T03:14:25.262Z,1.70
2022-09-02T03:16:51.949Z,1.40
2022-09-02T03:19:18.609Z,1.60
2022-09-02T03:21:45.160Z,1.63
2022-09-02T03:24:12.802Z,1.57
2022-09-02T03:26:42.120Z,1.47
2022-09-02T03:29:08.777Z,1.90
2022-09-02T03:31:35.545Z,1.57
2022-09-02T03:34:03.625Z,1.50
2022-09-02T03:36:36.840Z,1.20
2022-09-02T03:39:09.914Z,1.70
2022-09-02T03:41:37.712Z,1.60
2022-09-02T03:44:05.904Z,1.67
2022-09-02T03:46:32.556Z,1.77
2022-09-02T03:48:59.158Z,1.60
2022-09-02T03:51:27.102Z,1.43
2022-09-02T03:53:54.239Z,1.50
2022-09-02T03:56:22.168Z,1.53
2022-09-02T03:58:51.069Z,1.70
2022-09-02T04:01:21.643Z,1.53
2022-09-02T04:03:48.675Z,1.70
2022-09-02T04:06:16.894Z,1.50
2022-09-02T04:08:45.059Z,1.70
2022-09-02T04:11:16.479Z,1.70
2022-09-02T04:13:43.859Z,1.77
2022-09-02T04:16:13.963Z,1.83
2022-09-02T04:18:41.409Z,1.93
2022-09-02T04:21:08.823Z,1.90
2022-09-02T04:23:36.341Z,2.10
2022-09-02T04:26:08.088Z,1.90
2022-09-02T04:28:35.398Z,2.00
2022-09-02T04:31:07.712Z,2.40
2022-09-02T04:33:34.893Z,2.20
2022-09-02T04:36:05.600Z,2.20
2022-09-02T04:38:32.337Z,2.30
2022-09-02T04:40:58.975Z,2.30
2022-09-02T04:43:25.754Z,2.20
2022-09-02T04:45:52.410Z,2.40
2022-09-02T04:48:19.194Z,2.27
2022-09-02T04:50:45.916Z,2.50
2022-09-02T04:53:12.473Z,2.90
2022-09-02T04:55:41.204Z,2.27
2022-09-02T04:58:09.046Z,2.67
2022-09-02T05:00:40.798Z,2.50
2022-09-02T05:03:07.485Z,2.50
2022-09-02T05:05:35.508Z,2.63
2022-09-02T05:08:04.715Z,2.23
2022-09-02T05:10:32.951Z,2.73
2022-09-02T05:13:00.713Z,2.90
2022-09-02T05:15:27.673Z,2.43
2022-09-02T05:17:54.356Z,2.60
2022-09-02T05:20:20.941Z,2.53
2022-09-02T05:22:50.784Z,2.57
2022-09-02T05:25:17.756Z,2.80
2022-09-02T05:27:44.342Z,3.23
2022-09-02T05:30:11.515Z,2.40
2022-09-02T05:32:38.271Z,2.73
2022-09-02T05:35:05.633Z,2.40
2022-09-02T05:37:32.253Z,2.50
2022-09-02T05:39:58.790Z,2.80
2022-09-02T05:42:26.485Z,2.73
2022-09-02T05:44:53.156Z,2.70
2022-09-02T05:47:20.256Z,2.90
2022-09-02T05:49:46.800Z,2.73
2022-09-02T05:52:14.083Z,2.33
2022-09-02T05:54:41.398Z,2.73
2022-09-02T05:57:12.016Z,2.90
2022-09-02T05:59:42.256Z,2.70
2022-09-02T06:02:11.529Z,3.00
2022-09-02T06:04:43.358Z,2.37
2022-09-02T06:07:11.782Z,2.87
2022-09-02T06:09:41.308Z,2.93
2022-09-02T06:12:08.787Z,3.03
2022-09-02T06:14:35.644Z,3.17
2022-09-02T06:17:02.225Z,3.40
2022-09-02T06:19:32.662Z,3.53
2022-09-02T06:22:01.221Z,3.40
2022-09-02T06:24:29.321Z,3.50
2022-09-02T06:26:57.798Z,3.23
2022-09-02T06:29:26.109Z,3.17
2022-09-02T06:31:53.892Z,3.30
2022-09-02T06:34:22.945Z,2.50
2022-09-02T06:36:50.739Z,3.13
2022-09-02T06:39:20.653Z,2.40
2022-09-02T06:41:49.274Z,2.87
2022-09-02T06:44:18.150Z,3.40
2022-09-02T06:46:54.236Z,2.77
2022-09-02T06:49:22.570Z,2.90
2022-09-02T06:51:51.554Z,2.73
2022-09-02T06:54:20.607Z,2.63
2022-09-02T06:56:49.797Z,2.67
2022-09-02T06:59:18.201Z,2.83
2022-09-02T07:01:45.484Z,1.97
2022-09-02T07:04:30.603Z,2.80
2022-09-02T07:06:57.847Z,2.47
2022-09-02T07:09:31.490Z,2.77
2022-09-02T07:12:04.951Z,3.00
2022-09-02T07:14:36.318Z,2.83
2022-09-02T07:17:03.084Z,2.87
2022-09-02T07:19:29.964Z,2.50
2022-09-02T07:21:56.500Z,2.70
2022-09-02T07:24:24.158Z,2.50
2022-09-02T07:26:55.897Z,2.77
2022-09-02T07:29:23.421Z,2.90
2022-09-02T07:31:50.510Z,2.23
2022-09-02T07:34:18.322Z,2.37
2022-09-02T07:36:46.024Z,2.40
2022-09-02T07:39:14.215Z,2.77
2022-09-02T07:41:42.028Z,2.43
2022-09-02T07:44:08.978Z,3.03
2022-09-02T07:46:36.593Z,2.80
2022-09-02T07:49:09.359Z,2.57
2022-09-02T07:51:38.911Z,3.03
2022-09-02T07:54:07.055Z,2.97
2022-09-02T07:56:33.698Z,2.63
2022-09-02T07:59:00.399Z,2.50
2022-09-02T08:01:27.297Z,2.30
2022-09-02T08:03:54.064Z,2.20
2022-09-02T08:06:29.764Z,2.87
2022-09-02T08:09:02.058Z,3.10
2022-09-02T08:11:28.984Z,3.73
2022-09-02T08:13:55.630Z,3.60
2022-09-02T08:16:22.671Z,3.53
2022-09-02T08:18:50.630Z,2.77
2022-09-02T08:21:17.193Z,3.07
2022-09-02T08:23:44.168Z,2.67
2022-09-02T08:26:11.570Z,3.20
2022-09-02T08:28:39.170Z,3.03
2022-09-02T08:31:07.448Z,3.00
2022-09-02T08:33:34.694Z,3.23
2022-09-02T08:36:06.488Z,2.77
2022-09-02T08:38:33.069Z,3.50
2022-09-02T08:41:00.000Z,2.70
2022-09-02T08:43:44.779Z,2.80
2022-09-02T08:46:16.571Z,2.33
2022-09-02T08:48:53.754Z,2.67
2022-09-02T08:51:37.042Z,2.33
2022-09-02T08:54:22.772Z,2.77
2022-09-02T08:56:51.851Z,2.50
2022-09-02T08:59:21.838Z,2.57
2022-09-02T09:01:56.686Z,2.93
2022-09-02T09:04:53.317Z,2.30
2022-09-02T09:07:37.867Z,2.33
2022-09-02T09:10:16.680Z,2.97
2022-09-02T09:13:00.706Z,2.30
2022-09-02T09:15:40.357Z,2.50
2022-09-02T09:18:16.242Z,2.10
2022-09-02T09:20:44.934Z,2.30
2022-09-02T09:23:34.900Z,2.00
2022-09-02T09:26:06.097Z,2.07
2022-09-02T09:28:39.199Z,1.90
2022-09-02T09:31:06.314Z,2.10
2022-09-02T09:33:33.609Z,1.90
2022-09-02T09:36:00.161Z,2.10
2022-09-02T09:38:32.429Z,2.00
2022-09-02T09:41:20.428Z,2.20
2022-09-02T09:43:47.878Z,2.40
2022-09-02T09:46:27.740Z,2.20
2022-09-02T09:48:54.792Z,2.20
2022-09-02T09:51:21.400Z,1.73
2022-09-02T09:53:48.280Z,2.00
2022-09-02T09:56:15.486Z,2.00
2022-09-02T09:58:42.009Z,1.70
2022-09-02T10:01:13.611Z,1.70
2022-09-02T10:03:48.758Z,1.70
2022-09-02T10:06:37.718Z,1.67
2022-09-02T10:09:24.648Z,1.70
2022-09-02T10:12:11.106Z,1.40
2022-09-02T10:14:47.253Z,1.80
2022-09-02T10:17:13.831Z,1.70
2022-09-02T10:20:13.151Z,1.70
2022-09-02T10:23:07.014Z,1.70
2022-09-02T10:25:39.884Z,1.80
2022-09-02T10:28:37.186Z,1.80
2022-09-02T10:31:12.171Z,1.73
2022-09-02T10:33:38.902Z,1.60
2022-09-02T10:36:24.679Z,1.47
2022-09-02T10:38:51.839Z,1.60
2022-09-02T10:41:47.780Z,1.60
2022-09-02T10:44:33.896Z,1.40
2022-09-02T10:47:04.368Z,1.30
2022-09-02T10:49:42.966Z,1.43
2022-09-02T10:52:15.549Z,1.60
2022-09-02T10:54:59.553Z,1.63
2022-09-02T10:57:31.425Z,1.37
2022-09-02T11:00:03.820Z,1.60
2022-09-02T11:02:51.299Z,1.60
2022-09-02T11:05:42.321Z,1.57
2022-09-02T11:08:31.491Z,1.50
2022-09-02T11:11:22.495Z,1.70
2022-09-02T11:14:24.019Z,1.80
2022-09-02T11:17:01.231Z,2.07
2022-09-02T11:19:35.631Z,1.77
2022-09-02T11:22:22.176Z,1.70
2022-09-02T11:25:08.293Z,1.70
2022-09-02T11:27:45.109Z,1.60
2022-09-02T11:30:15.665Z,1.60
2022-09-02T11:32:56.378Z,1.50
2022-09-02T11:35:27.598Z,1.70
2022-09-02T11:38:04.117Z,1.80
2022-09-02T11:40:45.301Z,1.80
2022-09-02T11:43:26.987Z,1.40
2022-09-02T11:46:31.348Z,1.67
2022-09-02T11:49:30.326Z,1.60
2022-09-02T11:52:06.428Z,1.40
2022-09-02T11:54:42.713Z,1.50
2022-09-02T11:57:16.034Z,1.60
2022-09-02T11:59:51.510Z,1.60
2022-09-02T12:02:39.596Z,1.60
2022-09-02T12:05:30.041Z,1.40
2022-09-02T12:08:36.951Z,1.40
2022-09-02T12:11:06.909Z,1.30
2022-09-02T12:13:41.203Z,1.50
2022-09-02T12:16:16.773Z,1.33
2022-09-02T12:18:57.403Z,1.43
2022-09-02T12:21:28.512Z,1.27
2022-09-02T12:23:58.339Z,1.60
2022-09-02T12:26:50.934Z,1.43
2022-09-02T12:29:23.097Z,1.20
2022-09-02T12:31:52.302Z,1.57
2022-09-02T12:34:25.167Z,1.57
2022-09-02T12:36:56.460Z,1.80
2022-09-02T12:39:23.018Z,1.30
2022-09-02T12:42:10.225Z,1.70
2022-09-02T12:45:04.709Z,1.50
2022-09-02T12:48:08.978Z,1.60
2022-09-02T12:50:45.173Z,1.60
2022-09-02T12:53:35.674Z,1.43
2022-09-02T12:56:08.837Z,1.40
2022-09-02T12:58:45.673Z,1.63
2022-09-02T13:01:45.303Z,1.47
2022-09-02T13:04:36.557Z,1.90
2022-09-02T13:07:33.617Z,1.70
2022-09-02T13:10:37.687Z,1.50
2022-09-02T13:13:33.009Z,1.57
2022-09-02T13:16:02.701Z,1.63
2022-09-02T13:18:32.306Z,1.63
2022-09-02T13:21:04.737Z,1.80
2022-09-02T13:24:09.684Z,1.43
2022-09-02T13:26:49.679Z,1.60
2022-09-02T13:29:36.220Z,1.60
2022-09-02T13:32:23.544Z,1.50
2022-09-02T13:34:53.304Z,1.53
2022-09-02T13:37:32.425Z,1.50
2022-09-02T13:40:05.147Z,1.53
2022-09-02T13:42:33.064Z,1.60
2022-09-02T13:45:18.612Z,1.40
2022-09-02T13:47:48.528Z,1.53
2022-09-02T13:50:19.407Z,1.53
2022-09-02T13:55:49.092Z,1.60
2022-09-02T13:58:33.788Z,1.40
2022-09-02T14:01:22.127Z,1.47
2022-09-02T14:03:51.989Z,1.33
2022-09-02T14:06:23.493Z,1.23
2022-09-02T14:08:57.309Z,1.50
2022-09-02T14:11:25.272Z,1.70
2022-09-02T14:13:52.919Z,1.60
2022-09-02T14:16:27.917Z,1.60
2022-09-02T14:19:10.805Z,1.70
2022-09-02T14:21:45.873Z,1.50
2022-09-02T14:24:15.675Z,1.47
2022-09-02T14:26:45.814Z,1.50
2022-09-02T14:29:15.494Z,1.60
2022-09-02T14:31:42.551Z,1.33
2022-09-02T14:34:35.318Z,1.87
2022-09-02T14:37:20.064Z,1.53
2022-09-02T14:39:53.698Z,1.60
2022-09-02T14:42:20.708Z,1.53
2022-09-02T14:44:47.678Z,1.30
2022-09-02T14:47:16.827Z,1.50
2022-09-02T14:49:53.528Z,1.40
2022-09-02T14:52:27.133Z,1.57
2022-09-02T14:54:56.511Z,1.57
2022-09-02T14:57:32.972Z,1.50
2022-09-02T15:00:09.759Z,1.60
2022-09-02T15:02:36.695Z,1.63
2022-09-02T15:05:08.936Z,1.40
2022-09-02T15:07:35.533Z,1.30
2022-09-02T15:10:02.558Z,1.37
2022-09-02T15:12:32.199Z,1.57
2022-09-02T15:14:59.685Z,1.20
2022-09-02T15:17:26.946Z,1.50
2022-09-02T15:19:53.505Z,1.50
2022-09-02T15:22:20.679Z,1.40
2022-09-02T15:24:49.305Z,1.50
2022-09-02T15:27:17.337Z,1.50
2022-09-02T15:29:48.848Z,1.30
2022-09-02T15:32:15.465Z,1.47
2022-09-02T15:34:42.043Z,1.63
2022-09-02T15:37:12.259Z,1.60
2022-09-02T15:39:39.577Z,1.60
2022-09-02T15:42:09.866Z,1.33
2022-09-02T15:44:36.473Z,1.57
2022-09-02T15:47:06.447Z,1.33
2022-09-02T15:49:33.208Z,1.30
2022-09-02T15:51:59.931Z,1.67
2022-09-02T15:54:26.534Z,1.40
2022-09-02T15:56:58.986Z,1.60
2022-09-02T15:59:27.549Z,1.37
2022-09-02T16:01:56.875Z,1.73
2022-09-02T16:04:24.127Z,1.50
2022-09-02T16:06:52.545Z,1.40
2022-09-02T16:09:20.075Z,1.50
2022-09-02T16:11:52.018Z,1.40
2022-09-02T16:14:21.271Z,1.50
2022-09-02T16:16:54.710Z,1.60
2022-09-02T16:19:23.124Z,1.63
2022-09-02T16:21:51.332Z,1.57
2022-09-02T16:24:20.042Z,1.50
2022-09-02T16:26:46.809Z,1.50
2022-09-02T16:29:16.053Z,1.70
2022-09-02T16:31:44.233Z,1.57
2022-09-02T16:34:14.260Z,1.50
2022-09-02T16:36:43.941Z,1.50
2022-09-02T16:39:13.014Z,1.80
2022-09-02T16:41:51.725Z,1.90
2022-09-02T16:44:21.646Z,1.60
2022-09-02T16:46:49.890Z,1.50
2022-09-02T16:49:19.547Z,1.27
2022-09-02T16:51:48.154Z,1.63
2022-09-02T16:54:17.931Z,1.60
2022-09-02T16:56:49.136Z,1.53
2022-09-02T16:59:15.758Z,1.30
2022-09-02T17:01:42.726Z,1.50
2022-09-02T17:04:09.346Z,1.60
2022-09-02T17:06:39.890Z,1.57
2022-09-02T17:09:09.074Z,1.60
2022-09-02T17:11:39.861Z,1.40
2022-09-02T17:14:12.416Z,1.63
2022-09-02T17:16:47.081Z,1.40
2022-09-02T17:19:20.955Z,1.60
2022-09-02T17:21:50.855Z,1.70
2022-09-02T17:24:19.134Z,1.93
2022-09-02T17:26:50.685Z,1.70
2022-09-02T17:32:09.606Z,1.37
2022-09-02T17:34:36.989Z,1.70
2022-09-02T17:37:04.554Z,1.70
2022-09-02T17:39:31.205Z,1.83
2022-09-02T17:41:57.870Z,1.67
2022-09-02T17:44:37.491Z,1.60
2022-09-02T17:47:13.332Z,1.63
2022-09-02T17:49:49.973Z,1.70
2022-09-02T17:52:20.361Z,1.50
2022-09-02T17:54:50.326Z,1.70
2022-09-02T17:57:25.951Z,1.60
2022-09-02T18:00:06.002Z,1.63
2022-09-02T18:03:10.868Z,1.77
2022-09-02T18:05:42.932Z,1.20
2022-09-02T18:08:25.031Z,1.60
2022-09-02T18:10:57.540Z,1.60
2022-09-02T18:13:28.935Z,1.67
2022-09-02T18:16:04.942Z,1.70
2022-09-02T18:18:31.565Z,1.40
2022-09-02T18:21:09.463Z,1.53
2022-09-02T18:24:08.209Z,1.90
2022-09-02T18:26:50.006Z,1.60
2022-09-02T18:29:38.707Z,1.60
2022-09-02T18:32:11.002Z,1.43
2022-09-02T18:34:59.414Z,1.60
2022-09-02T18:37:58.927Z,1.50
2022-09-02T18:40:52.191Z,1.60
2022-09-02T18:43:22.141Z,1.40
2022-09-02T18:45:51.239Z,1.63
2022-09-02T18:48:31.381Z,1.50
2022-09-02T18:51:12.944Z,1.47
2022-09-02T18:53:45.323Z,1.70
2022-09-02T18:56:12.930Z,1.67
2022-09-02T18:58:44.366Z,1.80
2022-09-02T19:01:24.464Z,1.70
2022-09-02T19:03:51.833Z,1.60
2022-09-02T19:06:29.077Z,1.50
2022-09-02T19:09:13.132Z,1.60
2022-09-02T19:11:40.337Z,1.70
2022-09-02T19:14:26.215Z,1.80
2022-09-02T19:16:54.313Z,1.70
2022-09-02T19:19:20.920Z,1.70
2022-09-02T19:22:08.005Z,1.50
2022-09-02T19:24:42.665Z,1.70
2022-09-02T19:27:13.461Z,1.83
2022-09-02T19:29:45.304Z,1.50
2022-09-02T19:32:13.133Z,1.70
2022-09-02T19:34:43.663Z,1.90
2022-09-02T19:37:12.035Z,1.70
2022-09-02T19:39:38.712Z,1.83
2022-09-02T19:42:06.573Z,1.70
2022-09-02T19:44:33.255Z,1.90
2022-09-02T19:49:46.884Z,1.70
2022-09-02T19:52:14.116Z,1.53
2022-09-02T19:54:41.867Z,1.73
2022-09-02T19:57:08.477Z,1.60
2022-09-02T19:59:35.105Z,1.80
2022-09-02T20:02:03.497Z,2.00
2022-09-02T20:04:31.304Z,1.57
2022-09-02T20:06:58.968Z,1.60
2022-09-02T20:09:25.831Z,1.50
2022-09-02T20:11:56.360Z,1.57
2022-09-02T20:14:23.085Z,1.67
2022-09-02T20:16:54.198Z,1.67
2022-09-02T20:19:21.497Z,1.60
2022-09-02T20:21:49.405Z,1.63
2022-09-02T20:24:29.309Z,1.70
2022-09-02T20:27:14.472Z,1.47
2022-09-02T20:30:08.525Z,1.80
2022-09-02T20:32:44.394Z,1.93
2022-09-02T20:35:41.891Z,1.63
2022-09-02T20:38:14.825Z,1.97
2022-09-02T20:40:57.614Z,2.03
2022-09-02T20:43:45.424Z,1.97
2022-09-02T20:46:24.190Z,1.97
2022-09-02T20:49:13.187Z,2.10
2022-09-02T20:52:04.960Z,1.80
2022-09-02T20:54:55.294Z,1.90
2022-09-02T20:57:31.022Z,1.87
2022-09-02T21:00:10.251Z,2.30
2022-09-02T21:03:01.189Z,1.63
2022-09-02T21:05:58.193Z,1.60
2022-09-02T21:08:51.190Z,1.80
2022-09-02T21:11:20.689Z,1.60
2022-09-02T21:13:57.254Z,1.87
2022-09-02T21:16:32.515Z,1.80
2022-09-02T21:19:20.661Z,1.90
2022-09-02T21:21:50.222Z,1.53
2022-09-02T21:24:24.589Z,1.70
2022-09-02T21:27:09.720Z,1.73
2022-09-02T21:29:42.455Z,1.60
2022-09-02T21:32:49.587Z,1.63
2022-09-02T21:35:23.439Z,1.90
2022-09-02T21:37:58.461Z,1.87
2022-09-02T21:40:44.322Z,1.73
2022-09-02T21:43:22.035Z,1.70
2022-09-02T21:46:15.406Z,1.43
2022-09-02T21:49:06.860Z,1.70
2022-09-02T21:51:38.986Z,1.50
2022-09-02T21:54:27.150Z,1.70
2022-09-02T21:57:14.907Z,1.60
2022-09-02T22:00:00.538Z,1.60
2022-09-02T22:02:58.066Z,1.60
2022-09-02T22:06:13.000Z,1.67
2022-09-02T22:08:50.581Z,1.50
2022-09-02T22:11:35.783Z,1.50
2022-09-02T22:14:31.747Z,1.40
2022-09-02T22:17:26.125Z,1.60
2022-09-02T22:19:57.885Z,1.77
2022-09-02T22:22:34.905Z,1.93
2022-09-02T22:25:01.853Z,1.53
2022-09-02T22:27:37.221Z,1.60
2022-09-02T22:30:14.639Z,1.60
2022-09-02T22:32:46.655Z,1.60
2022-09-02T22:35:27.624Z,1.43
2022-09-02T22:38:10.556Z,1.50
2022-09-02T22:40:46.032Z,1.60
2022-09-02T22:43:17.069Z,1.50
2022-09-02T22:46:09.729Z,1.43
2022-09-02T22:49:08.070Z,1.57
2022-09-02T22:52:19.678Z,1.63
2022-09-02T22:54:46.662Z,1.50
2022-09-02T22:57:41.266Z,1.40
2022-09-02T23:00:12.210Z,1.50
2022-09-02T23:02:44.706Z,1.30
2022-09-02T23:05:45.437Z,1.40
2022-09-02T23:08:20.509Z,1.50
2022-09-02T23:11:19.500Z,1.50
2022-09-02T23:14:13.723Z,1.57
2022-09-02T23:17:20.473Z,1.60
2022-09-02T23:19:56.470Z,1.57
2022-09-02T23:23:04.511Z,1.50
2022-09-02T23:25:41.918Z,1.50
2022-09-02T23:28:32.635Z,1.37
2022-09-02T23:31:02.945Z,1.50
2022-09-02T23:33:44.464Z,1.40
2022-09-02T23:36:21.645Z,1.70
2022-09-02T23:39:06.559Z,1.60
2022-09-02T23:41:36.322Z,1.50
2022-09-02T23:44:05.009Z,1.57
2022-09-02T23:46:38.331Z,1.80
2022-09-02T23:49:29.842Z,1.53
2022-09-02T23:51:59.559Z,1.60
2022-09-02T23:54:39.514Z,1.20
2022-09-02T23:57:21.237Z,1.53
